Ingleside, Illinois
Current Conditions -  °F | °C
As of 9:55 AM on Saturday 25 Oct 2014 (Local Time) from KUGN Reporting Station
Clear Clear  
Wind Chill: 62°   Ceiling: Unl
Heat Index: 62°   Visibility: 10mi
Dew Point: 49°   Wind: 10mph
Humidity: 62%   Direction: 290°WNW
Pressure: 29.93"   Gusts: NA
Location:  42.38°N, 88.14°W
Report Text: KUGN 251455Z 29009KT 10SM CLR 17/09 A2993 RMK AO2 SLP133 T01670094 53018
Loading
Personal Weather Stations






























Interactive Weather Map
Tropical Storm Tracking
New forecast layout! Learn more

10-Day Weather Forecast

Advertisements
Track Severe Weather on mobile